createdAt,value
2018-03-28T00:00:05.999Z,968.41
2018-03-28T00:01:05.697Z,968.41
2018-03-28T00:02:05.623Z,968.44
2018-03-28T00:03:05.640Z,968.38
2018-03-28T00:04:05.348Z,968.47
2018-03-28T00:05:05.782Z,968.35
2018-03-28T00:06:05.766Z,968.27
2018-03-28T00:07:05.952Z,968.38
2018-03-28T00:08:05.203Z,968.30
2018-03-28T00:09:05.172Z,968.24
2018-03-28T00:10:05.044Z,968.24
2018-03-28T00:11:05.920Z,968.16
2018-03-28T00:12:05.612Z,968.13
2018-03-28T00:13:06.775Z,968.24
2018-03-28T00:14:05.951Z,968.24
2018-03-28T00:15:05.080Z,968.21
2018-03-28T00:16:05.619Z,968.18
2018-03-28T00:17:06.356Z,968.13
2018-03-28T00:18:05.809Z,968.18
2018-03-28T00:19:05.217Z,968.10
2018-03-28T00:20:05.595Z,968.16
2018-03-28T00:21:05.312Z,968.35
2018-03-28T00:22:05.829Z,968.21
2018-03-28T00:23:04.940Z,968.13
2018-03-28T00:24:06.125Z,968.27
2018-03-28T00:25:05.927Z,968.16
2018-03-28T00:26:05.593Z,968.13
2018-03-28T00:27:05.767Z,968.13
2018-03-28T00:28:05.649Z,968.07
2018-03-28T00:29:05.818Z,967.96
2018-03-28T00:30:05.109Z,968.07
2018-03-28T00:31:05.191Z,967.96
2018-03-28T00:32:05.914Z,967.99
2018-03-28T00:33:08.695Z,968.16
2018-03-28T00:34:05.785Z,967.99
2018-03-28T00:35:05.339Z,968.10
2018-03-28T00:36:05.925Z,968.19
2018-03-28T00:37:05.985Z,968.07
2018-03-28T00:38:05.760Z,968.13
2018-03-28T00:39:05.195Z,968.05
2018-03-28T00:40:05.917Z,968.07
2018-03-28T00:41:05.965Z,968.07
2018-03-28T00:42:05.860Z,967.99
2018-03-28T00:43:05.811Z,967.96
2018-03-28T00:44:05.677Z,968.10
2018-03-28T00:45:05.003Z,968.08
2018-03-28T00:46:05.027Z,967.96
2018-03-28T00:47:05.010Z,967.91
2018-03-28T00:48:05.085Z,968.05
2018-03-28T00:49:06.310Z,967.99
2018-03-28T00:50:05.755Z,967.96
2018-03-28T00:51:05.830Z,967.94
2018-03-28T00:52:05.071Z,968.02
2018-03-28T00:53:05.480Z,967.85
2018-03-28T00:54:05.340Z,967.99
2018-03-28T00:55:05.153Z,967.85
2018-03-28T00:56:05.791Z,967.63
2018-03-28T00:57:05.715Z,967.71
2018-03-28T00:58:05.847Z,967.85
2018-03-28T00:59:05.464Z,967.77
2018-03-28T01:00:06.048Z,967.63
2018-03-28T01:01:05.947Z,967.77
2018-03-28T01:02:05.307Z,967.60
2018-03-28T01:03:05.104Z,967.60
2018-03-28T01:04:05.873Z,967.57
2018-03-28T01:05:05.847Z,967.52
2018-03-28T01:06:05.752Z,967.60
2018-03-28T01:07:05.919Z,967.69
2018-03-28T01:08:05.228Z,967.52
2018-03-28T01:09:04.935Z,967.43
2018-03-28T01:10:05.724Z,967.60
2018-03-28T01:11:05.438Z,967.49
2018-03-28T01:12:05.168Z,967.43
2018-03-28T01:13:05.696Z,967.52
2018-03-28T01:14:05.125Z,967.46
2018-03-28T01:15:06.820Z,967.44
2018-03-28T01:16:05.824Z,967.43
2018-03-28T01:17:05.645Z,967.55
2018-03-28T01:18:05.087Z,967.58
2018-03-28T01:19:05.620Z,967.46
2018-03-28T01:20:05.257Z,967.49
2018-03-28T01:21:06.017Z,967.44
2018-03-28T01:22:05.708Z,967.49
2018-03-28T01:23:05.513Z,967.28
2018-03-28T01:24:04.938Z,967.49
2018-03-28T01:25:06.034Z,967.33
2018-03-28T01:26:05.532Z,967.52
2018-03-28T01:27:06.670Z,967.52
2018-03-28T01:28:05.103Z,967.58
2018-03-28T01:29:05.092Z,967.58
2018-03-28T01:30:05.022Z,967.55
2018-03-28T01:31:05.079Z,967.52
2018-03-28T01:32:05.573Z,967.52
2018-03-28T01:33:05.058Z,967.44
2018-03-28T01:34:05.105Z,967.52
2018-03-28T01:35:05.087Z,967.63
2018-03-28T01:36:05.961Z,967.44
2018-03-28T01:37:05.406Z,967.61
2018-03-28T01:38:05.321Z,967.47
2018-03-28T01:39:06.261Z,967.31
2018-03-28T01:40:05.200Z,967.47
2018-03-28T01:41:05.200Z,967.49
2018-03-28T01:42:05.188Z,967.41
2018-03-28T01:43:05.105Z,967.44
2018-03-28T01:44:05.576Z,967.44
2018-03-28T01:45:05.724Z,967.44
2018-03-28T01:46:05.436Z,967.47
2018-03-28T01:47:05.428Z,967.41
2018-03-28T01:48:05.325Z,967.52
2018-03-28T01:49:05.229Z,967.47
2018-03-28T01:50:05.232Z,967.44
2018-03-28T01:51:05.781Z,967.50
2018-03-28T01:52:04.982Z,967.22
2018-03-28T01:53:05.033Z,967.41
2018-03-28T01:54:05.521Z,967.39
2018-03-28T01:55:05.357Z,967.41
2018-03-28T01:56:05.464Z,967.55
2018-03-28T01:57:05.387Z,967.41
2018-03-28T01:58:05.305Z,967.31
2018-03-28T01:59:05.632Z,967.25
2018-03-28T02:00:06.788Z,967.31
2018-03-28T02:01:05.731Z,967.28
2018-03-28T02:02:05.359Z,967.44
2018-03-28T02:03:05.986Z,967.39
2018-03-28T02:04:05.841Z,967.39
2018-03-28T02:05:05.856Z,967.23
2018-03-28T02:06:04.966Z,967.31
2018-03-28T02:07:05.025Z,967.25
2018-03-28T02:08:05.691Z,967.44
2018-03-28T02:09:05.510Z,967.23
2018-03-28T02:10:05.317Z,967.39
2018-03-28T02:11:05.354Z,967.11
2018-03-28T02:12:05.223Z,967.17
2018-03-28T02:13:05.697Z,967.23
2018-03-28T02:14:05.739Z,967.17
2018-03-28T02:15:05.427Z,967.14
2018-03-28T02:16:05.405Z,967.11
2018-03-28T02:17:05.409Z,967.03
2018-03-28T02:18:05.970Z,966.93
2018-03-28T02:19:05.023Z,967.09
2018-03-28T02:20:05.070Z,966.96
2018-03-28T02:21:05.615Z,967.03
2018-03-28T02:22:05.346Z,966.99
2018-03-28T02:23:05.784Z,966.99
2018-03-28T02:24:05.607Z,966.96
2018-03-28T02:25:05.267Z,966.85
2018-03-28T02:26:05.757Z,966.90
2018-03-28T02:27:06.458Z,966.73
2018-03-28T02:28:05.899Z,966.79
2018-03-28T02:29:05.218Z,966.82
2018-03-28T02:30:05.891Z,966.96
2018-03-28T02:31:05.188Z,966.90
2018-03-28T02:32:05.978Z,966.93
2018-03-28T02:33:05.856Z,966.71
2018-03-28T02:34:06.009Z,966.93
2018-03-28T02:35:05.895Z,966.82
2018-03-28T02:36:04.987Z,966.93
2018-03-28T02:37:06.014Z,966.82
2018-03-28T02:38:05.935Z,966.79
2018-03-28T02:39:05.102Z,966.76
2018-03-28T02:40:04.997Z,966.76
2018-03-28T02:41:05.144Z,966.70
2018-03-28T02:42:05.207Z,966.68
2018-03-28T02:43:05.407Z,966.54
2018-03-28T02:44:05.033Z,966.65
2018-03-28T02:45:05.970Z,966.59
2018-03-28T02:46:05.773Z,966.48
2018-03-28T02:47:05.412Z,966.59
2018-03-28T02:48:05.326Z,966.65
2018-03-28T02:49:05.657Z,966.59
2018-03-28T02:50:05.118Z,966.51
2018-03-28T02:51:05.156Z,966.59
2018-03-28T02:52:05.630Z,966.51
2018-03-28T02:53:05.601Z,966.62
2018-03-28T02:54:05.282Z,966.62
2018-03-28T02:55:05.710Z,966.53
2018-03-28T02:56:05.469Z,966.65
2018-03-28T02:57:05.803Z,966.59
2018-03-28T02:58:05.720Z,966.42
2018-03-28T02:59:05.298Z,966.53
2018-03-28T03:00:05.533Z,966.62
2018-03-28T03:01:05.091Z,966.62
2018-03-28T03:02:05.075Z,966.56
2018-03-28T03:03:06.376Z,966.59
2018-03-28T03:04:05.083Z,966.73
2018-03-28T03:05:05.705Z,966.76
2018-03-28T03:06:05.627Z,966.67
2018-03-28T03:07:05.352Z,966.56
2018-03-28T03:08:05.648Z,966.67
2018-03-28T03:09:05.984Z,966.62
2018-03-28T03:10:05.773Z,966.62
2018-03-28T03:11:05.663Z,966.67
2018-03-28T03:12:05.340Z,966.59
2018-03-28T03:13:05.199Z,966.59
2018-03-28T03:14:05.031Z,966.64
2018-03-28T03:15:04.970Z,966.62
2018-03-28T03:16:05.871Z,966.59
2018-03-28T03:17:06.132Z,966.50
2018-03-28T03:18:05.134Z,966.59
2018-03-28T03:19:10.603Z,966.50
2018-03-28T03:20:05.262Z,966.56
2018-03-28T03:21:06.023Z,966.53
2018-03-28T03:22:05.622Z,966.62
2018-03-28T03:23:05.207Z,966.59
2018-03-28T03:24:05.647Z,966.62
2018-03-28T03:25:05.758Z,966.53
2018-03-28T03:26:10.769Z,966.59
2018-03-28T03:27:05.595Z,966.53
2018-03-28T03:28:05.407Z,966.61
2018-03-28T03:29:06.016Z,966.53
2018-03-28T03:30:05.292Z,966.47
2018-03-28T03:31:05.465Z,966.59
2018-03-28T03:32:05.128Z,966.53
2018-03-28T03:33:05.482Z,966.70
2018-03-28T03:34:04.964Z,966.56
2018-03-28T03:35:05.047Z,966.50
2018-03-28T03:36:05.927Z,966.48
2018-03-28T03:37:05.874Z,966.47
2018-03-28T03:38:05.444Z,966.59
2018-03-28T03:39:05.217Z,966.50
2018-03-28T03:40:05.484Z,966.39
2018-03-28T03:41:05.331Z,966.53
2018-03-28T03:42:05.425Z,966.42
2018-03-28T03:43:05.820Z,966.56
2018-03-28T03:44:05.988Z,966.48
2018-03-28T03:45:06.034Z,966.50
2018-03-28T03:46:05.767Z,966.48
2018-03-28T03:47:05.669Z,966.39
2018-03-28T03:48:05.220Z,966.53
2018-03-28T03:49:05.067Z,966.50
2018-03-28T03:50:05.235Z,966.53
2018-03-28T03:51:05.539Z,966.53
2018-03-28T03:52:05.020Z,966.59
2018-03-28T03:53:05.569Z,966.45
2018-03-28T03:54:05.996Z,966.48
2018-03-28T03:55:05.385Z,966.53
2018-03-28T03:56:06.271Z,966.53
2018-03-28T03:57:05.611Z,966.53
2018-03-28T03:58:05.518Z,966.45
2018-03-28T03:59:05.186Z,966.56
2018-03-28T04:00:05.237Z,966.56
2018-03-28T04:01:05.669Z,966.56
2018-03-28T04:02:05.773Z,966.56
2018-03-28T04:03:05.631Z,966.62
2018-03-28T04:04:05.376Z,966.45
2018-03-28T04:05:05.875Z,966.45
2018-03-28T04:06:05.854Z,966.42
2018-03-28T04:07:05.316Z,966.39
2018-03-28T04:08:05.965Z,966.47
2018-03-28T04:09:06.092Z,966.64
2018-03-28T04:10:06.635Z,966.53
2018-03-28T04:11:05.180Z,966.47
2018-03-28T04:12:05.376Z,966.36
2018-03-28T04:13:05.890Z,966.44
2018-03-28T04:14:04.978Z,966.50
2018-03-28T04:15:04.991Z,966.33
2018-03-28T04:16:04.989Z,966.36
2018-03-28T04:17:06.134Z,966.36
2018-03-28T04:18:05.839Z,966.31
2018-03-28T04:19:05.419Z,966.47
2018-03-28T04:20:05.459Z,966.42
2018-03-28T04:21:05.013Z,966.31
2018-03-28T04:22:05.485Z,966.36
2018-03-28T04:23:05.906Z,966.39
2018-03-28T04:24:05.222Z,966.39
2018-03-28T04:25:06.296Z,966.42
2018-03-28T04:26:05.210Z,966.33
2018-03-28T04:27:05.363Z,966.36
2018-03-28T04:28:05.258Z,966.34
2018-03-28T04:29:05.894Z,966.42
2018-03-28T04:30:05.969Z,966.28
2018-03-28T04:31:05.351Z,966.39
2018-03-28T04:32:05.928Z,966.17
2018-03-28T04:33:06.172Z,966.28
2018-03-28T04:34:05.210Z,966.23
2018-03-28T04:35:05.515Z,966.28
2018-03-28T04:36:05.148Z,966.20
2018-03-28T04:37:05.088Z,966.29
2018-03-28T04:38:05.803Z,966.37
2018-03-28T04:39:05.802Z,966.26
2018-03-28T04:40:06.467Z,966.32
2018-03-28T04:41:05.454Z,966.09
2018-03-28T04:42:05.762Z,966.12
2018-03-28T04:43:06.136Z,966.23
2018-03-28T04:44:05.869Z,966.29
2018-03-28T04:45:05.270Z,966.15
2018-03-28T04:46:05.112Z,966.12
2018-03-28T04:47:05.053Z,966.10
2018-03-28T04:48:05.970Z,966.15
2018-03-28T04:49:10.067Z,966.26
2018-03-28T04:50:04.907Z,966.12
2018-03-28T04:51:05.056Z,966.10
2018-03-28T04:52:04.983Z,966.21
2018-03-28T04:53:06.048Z,966.21
2018-03-28T04:54:05.007Z,966.12
2018-03-28T04:55:06.030Z,966.26
2018-03-28T04:56:05.895Z,966.15
2018-03-28T04:57:05.572Z,966.18
2018-03-28T04:58:10.775Z,966.18
2018-03-28T04:59:05.938Z,966.10
2018-03-28T05:00:05.822Z,966.07
2018-03-28T05:01:05.366Z,966.15
2018-03-28T05:02:05.028Z,966.01
2018-03-28T05:03:05.653Z,966.18
2018-03-28T05:04:05.989Z,966.13
2018-03-28T05:05:05.925Z,966.07
2018-03-28T05:06:05.673Z,966.15
2018-03-28T05:07:05.541Z,966.01
2018-03-28T05:08:05.468Z,966.18
2018-03-28T05:09:05.579Z,965.99
2018-03-28T05:10:05.496Z,966.13
2018-03-28T05:11:05.430Z,966.01
2018-03-28T05:12:05.388Z,966.10
2018-03-28T05:13:05.824Z,966.12
2018-03-28T05:14:05.471Z,966.21
2018-03-28T05:15:05.633Z,966.21
2018-03-28T05:16:05.549Z,966.18
2018-03-28T05:17:05.056Z,966.12
2018-03-28T05:18:06.082Z,966.04
2018-03-28T05:19:05.706Z,966.24
2018-03-28T05:20:05.392Z,966.15
2018-03-28T05:21:05.019Z,966.32
2018-03-28T05:22:05.836Z,966.18
2018-03-28T05:23:05.602Z,966.21
2018-03-28T05:24:05.156Z,966.12
2018-03-28T05:25:06.057Z,966.26
2018-03-28T05:26:05.768Z,966.10
2018-03-28T05:27:05.542Z,966.15
2018-03-28T05:28:11.044Z,966.21
2018-03-28T05:29:05.996Z,966.18
2018-03-28T05:30:06.042Z,966.21
2018-03-28T05:31:04.950Z,966.24
2018-03-28T05:32:05.113Z,966.35
2018-03-28T05:33:05.386Z,966.21
2018-03-28T05:34:07.467Z,966.29
2018-03-28T05:35:06.773Z,966.18
2018-03-28T05:36:05.741Z,966.18
2018-03-28T05:37:07.482Z,966.18
2018-03-28T05:38:07.151Z,966.12
2018-03-28T05:39:05.935Z,966.12
2018-03-28T05:40:05.825Z,966.20
2018-03-28T05:41:05.654Z,966.26
2018-03-28T05:42:06.132Z,966.29
2018-03-28T05:43:06.344Z,966.15
2018-03-28T05:44:05.268Z,966.20
2018-03-28T05:45:06.004Z,966.18
2018-03-28T05:46:06.010Z,966.26
2018-03-28T05:47:05.677Z,966.31
2018-03-28T05:48:05.581Z,966.31
2018-03-28T05:49:05.392Z,966.12
2018-03-28T05:50:05.406Z,966.26
2018-03-28T05:51:06.820Z,966.14
2018-03-28T05:52:05.598Z,966.17
2018-03-28T05:53:05.864Z,966.23
2018-03-28T05:54:05.798Z,966.23
2018-03-28T05:55:05.467Z,966.31
2018-03-28T05:56:05.560Z,966.17
2018-03-28T05:57:04.954Z,966.20
2018-03-28T05:58:05.672Z,966.31
2018-03-28T05:59:05.240Z,966.22
2018-03-28T06:00:04.991Z,966.14
2018-03-28T06:01:05.673Z,966.36
2018-03-28T06:02:05.187Z,966.20
2018-03-28T06:03:05.831Z,966.20
2018-03-28T06:04:06.735Z,966.25
2018-03-28T06:05:05.550Z,966.14
2018-03-28T06:06:05.458Z,966.25
2018-03-28T06:07:05.567Z,966.36
2018-03-28T06:08:05.992Z,966.33
2018-03-28T06:09:06.636Z,966.17
2018-03-28T06:10:05.407Z,966.19
2018-03-28T06:11:05.344Z,966.25
2018-03-28T06:12:05.737Z,966.25
2018-03-28T06:13:05.637Z,966.19
2018-03-28T06:14:05.219Z,966.08
2018-03-28T06:15:05.384Z,966.25
2018-03-28T06:16:05.371Z,966.28
2018-03-28T06:17:05.495Z,966.13
2018-03-28T06:18:04.988Z,966.33
2018-03-28T06:19:06.104Z,966.16
2018-03-28T06:20:05.096Z,966.11
2018-03-28T06:21:05.620Z,966.08
2018-03-28T06:22:05.201Z,966.11
2018-03-28T06:23:05.219Z,966.05
2018-03-28T06:24:05.209Z,966.11
2018-03-28T06:25:05.456Z,966.10
2018-03-28T06:26:05.489Z,966.02
2018-03-28T06:27:05.140Z,965.99
2018-03-28T06:28:05.686Z,966.02
2018-03-28T06:29:05.534Z,965.99
2018-03-28T06:30:10.324Z,965.96
2018-03-28T06:31:05.763Z,965.91
2018-03-28T06:32:05.331Z,966.07
2018-03-28T06:33:05.535Z,966.10
2018-03-28T06:34:05.495Z,965.88
2018-03-28T06:35:05.355Z,965.96
2018-03-28T06:36:05.132Z,965.93
2018-03-28T06:37:05.041Z,966.01
2018-03-28T06:38:05.427Z,965.90
2018-03-28T06:39:05.985Z,966.04
2018-03-28T06:40:05.361Z,965.93
2018-03-28T06:41:05.711Z,965.73
2018-03-28T06:42:05.397Z,965.73
2018-03-28T06:43:05.346Z,965.95
2018-03-28T06:44:04.932Z,965.98
2018-03-28T06:45:05.725Z,965.78
2018-03-28T06:46:05.586Z,965.89
2018-03-28T06:47:05.271Z,966.09
2018-03-28T06:48:05.616Z,965.92
2018-03-28T06:49:05.137Z,965.92
2018-03-28T06:50:05.270Z,965.91
2018-03-28T06:51:05.433Z,965.80
2018-03-28T06:52:05.862Z,965.86
2018-03-28T06:53:05.112Z,965.86
2018-03-28T06:54:05.896Z,965.80
2018-03-28T06:55:05.756Z,965.69
2018-03-28T06:56:05.319Z,965.63
2018-03-28T06:57:05.669Z,965.68
2018-03-28T06:58:05.425Z,965.68
2018-03-28T06:59:05.180Z,965.68
2018-03-28T07:00:06.012Z,965.58
2018-03-28T07:01:05.921Z,965.65
2018-03-28T07:02:05.893Z,965.65
2018-03-28T07:03:05.563Z,965.65
2018-03-28T07:04:05.542Z,965.73
2018-03-28T07:05:05.465Z,965.62
2018-03-28T07:06:05.461Z,965.60
2018-03-28T07:07:05.712Z,965.65
2018-03-28T07:08:04.965Z,965.65
2018-03-28T07:09:05.269Z,965.54
2018-03-28T07:10:06.031Z,965.60
2018-03-28T07:11:05.134Z,965.65
2018-03-28T07:12:05.044Z,965.54
2018-03-28T07:13:05.853Z,965.67
2018-03-28T07:14:05.170Z,965.62
2018-03-28T07:15:05.108Z,965.54
2018-03-28T07:16:06.063Z,965.60
2018-03-28T07:17:06.127Z,965.67
2018-03-28T07:18:05.514Z,965.67
2018-03-28T07:19:05.181Z,965.67
2018-03-28T07:20:05.467Z,965.61
2018-03-28T07:21:05.339Z,965.56
2018-03-28T07:22:05.241Z,965.59
2018-03-28T07:23:05.614Z,965.66
2018-03-28T07:24:05.495Z,965.63
2018-03-28T07:25:05.513Z,965.53
2018-03-28T07:26:05.205Z,965.56
2018-03-28T07:27:05.138Z,965.69
2018-03-28T07:28:05.995Z,965.53
2018-03-28T07:29:05.247Z,965.53
2018-03-28T07:30:05.387Z,965.58
2018-03-28T07:31:04.972Z,965.60
2018-03-28T07:32:05.792Z,965.65
2018-03-28T07:33:05.525Z,965.52
2018-03-28T07:34:05.408Z,965.52
2018-03-28T07:35:05.077Z,965.52
2018-03-28T07:36:05.678Z,965.52
2018-03-28T07:37:05.264Z,965.55
2018-03-28T07:38:05.272Z,965.62
2018-03-28T07:39:05.270Z,965.52
2018-03-28T07:40:05.312Z,965.57
2018-03-28T07:41:05.082Z,965.43
2018-03-28T07:42:05.122Z,965.46
2018-03-28T07:43:05.958Z,965.51
2018-03-28T07:44:05.510Z,965.40
2018-03-28T07:45:06.030Z,965.45
2018-03-28T07:46:05.781Z,965.70
2018-03-28T07:47:05.672Z,965.42
2018-03-28T07:48:05.589Z,965.39
2018-03-28T07:49:05.481Z,965.51
2018-03-28T07:50:05.043Z,965.48
2018-03-28T07:51:05.332Z,965.47
2018-03-28T07:52:05.316Z,965.33
2018-03-28T07:53:05.152Z,965.59
2018-03-28T07:54:04.977Z,965.50
2018-03-28T07:55:05.693Z,965.63
2018-03-28T07:56:05.030Z,965.53
2018-03-28T07:57:05.526Z,965.41
2018-03-28T07:58:05.024Z,965.44
2018-03-28T07:59:05.918Z,965.41
2018-03-28T08:00:05.695Z,965.46
2018-03-28T08:01:05.948Z,965.55
2018-03-28T08:02:05.649Z,965.38
2018-03-28T08:03:05.684Z,965.49
2018-03-28T08:04:05.398Z,965.38
2018-03-28T08:05:05.535Z,965.40
2018-03-28T08:06:05.558Z,965.37
2018-03-28T08:07:05.959Z,965.40
2018-03-28T08:08:05.369Z,965.61
2018-03-28T08:09:05.994Z,965.57
2018-03-28T08:10:05.901Z,965.37
2018-03-28T08:11:04.945Z,965.48
2018-03-28T08:12:05.720Z,965.43
2018-03-28T08:13:05.406Z,965.31
2018-03-28T08:14:05.292Z,965.31
2018-03-28T08:15:05.279Z,965.31
2018-03-28T08:16:05.519Z,965.39
2018-03-28T08:17:10.968Z,965.39
2018-03-28T08:18:05.065Z,965.56
2018-03-28T08:19:05.073Z,965.41
2018-03-28T08:20:05.060Z,965.44
2018-03-28T08:21:06.012Z,965.49
2018-03-28T08:22:05.833Z,965.52
2018-03-28T08:23:05.274Z,965.38
2018-03-28T08:24:05.746Z,965.54
2018-03-28T08:25:05.647Z,965.54
2018-03-28T08:26:05.374Z,965.48
2018-03-28T08:27:05.796Z,965.31
2018-03-28T08:28:05.076Z,965.42
2018-03-28T08:29:05.111Z,965.39
2018-03-28T08:30:05.805Z,965.34
2018-03-28T08:31:05.166Z,965.53
2018-03-28T08:32:05.669Z,965.42
2018-03-28T08:33:04.956Z,965.45
2018-03-28T08:34:05.070Z,965.42
2018-03-28T08:35:05.979Z,965.41
2018-03-28T08:36:06.016Z,965.41
2018-03-28T08:37:04.923Z,965.33
2018-03-28T08:38:05.553Z,965.50
2018-03-28T08:39:05.843Z,965.33
2018-03-28T08:40:05.297Z,965.27
2018-03-28T08:41:05.886Z,965.27
2018-03-28T08:42:05.660Z,965.32
2018-03-28T08:43:06.048Z,965.29
2018-03-28T08:44:05.964Z,965.32
2018-03-28T08:45:05.749Z,965.38
2018-03-28T08:46:05.627Z,965.40
2018-03-28T08:47:05.145Z,965.40
2018-03-28T08:48:05.244Z,965.32
2018-03-28T08:49:05.118Z,965.43
2018-03-28T08:50:05.835Z,965.37
2018-03-28T08:51:05.821Z,965.34
2018-03-28T08:52:06.028Z,965.40
2018-03-28T08:53:05.584Z,965.48
2018-03-28T08:54:05.228Z,965.37
2018-03-28T08:55:05.384Z,965.42
2018-03-28T08:56:05.025Z,965.34
2018-03-28T08:57:05.949Z,965.39
2018-03-28T08:58:06.180Z,965.39
2018-03-28T08:59:05.555Z,965.33
2018-03-28T09:00:05.120Z,965.45
2018-03-28T09:01:05.488Z,965.33
2018-03-28T09:02:05.220Z,965.39
2018-03-28T09:03:06.067Z,965.36
2018-03-28T09:04:06.179Z,965.41
2018-03-28T09:05:05.025Z,965.30
2018-03-28T09:06:05.586Z,965.24
2018-03-28T09:07:05.848Z,965.24
2018-03-28T09:08:05.751Z,965.18
2018-03-28T09:09:05.390Z,965.21
2018-03-28T09:10:05.375Z,965.21
2018-03-28T09:11:05.042Z,965.15
2018-03-28T09:12:05.722Z,965.18
2018-03-28T09:13:05.846Z,965.15
2018-03-28T09:14:05.377Z,965.17
2018-03-28T09:15:05.231Z,965.28
2018-03-28T09:16:10.588Z,965.20
2018-03-28T09:17:05.466Z,965.19
2018-03-28T09:18:05.570Z,965.14
2018-03-28T09:19:05.060Z,965.25
2018-03-28T09:20:05.700Z,965.25
2018-03-28T09:21:05.142Z,965.25
2018-03-28T09:22:05.113Z,965.19
2018-03-28T09:23:05.153Z,965.21
2018-03-28T09:24:05.987Z,965.13
2018-03-28T09:25:05.465Z,965.27
2018-03-28T09:26:05.544Z,965.35
2018-03-28T09:27:05.741Z,965.10
2018-03-28T09:28:05.819Z,965.07
2018-03-28T09:29:05.538Z,965.18
2018-03-28T09:30:05.506Z,965.15
2018-03-28T09:31:05.789Z,965.18
2018-03-28T09:32:06.351Z,965.18
2018-03-28T09:33:05.365Z,965.15
2018-03-28T09:34:04.942Z,965.09
2018-03-28T09:35:05.555Z,965.17
2018-03-28T09:36:05.593Z,965.26
2018-03-28T09:37:05.558Z,965.40
2018-03-28T09:38:05.207Z,965.31
2018-03-28T09:39:05.340Z,965.25
2018-03-28T09:40:06.111Z,965.22
2018-03-28T09:41:05.345Z,965.16
2018-03-28T09:42:05.590Z,965.16
2018-03-28T09:43:05.665Z,965.16
2018-03-28T09:44:05.761Z,965.19
2018-03-28T09:45:05.224Z,965.13
2018-03-28T09:46:05.631Z,965.19
2018-03-28T09:47:10.766Z,965.16
2018-03-28T09:48:05.547Z,965.27
2018-03-28T09:49:05.950Z,965.10
2018-03-28T09:50:05.665Z,965.09
2018-03-28T09:51:05.474Z,965.21
2018-03-28T09:52:05.493Z,965.15
2018-03-28T09:53:05.695Z,965.04
2018-03-28T09:54:05.700Z,965.18
2018-03-28T09:55:05.128Z,965.18
2018-03-28T09:56:05.760Z,965.03
2018-03-28T09:57:05.688Z,965.12
2018-03-28T09:58:05.156Z,965.06
2018-03-28T09:59:05.962Z,965.06
2018-03-28T10:00:05.792Z,965.09
2018-03-28T10:01:10.425Z,965.12
2018-03-28T10:02:05.440Z,965.06
2018-03-28T10:03:05.607Z,965.01
2018-03-28T10:04:05.603Z,965.06
2018-03-28T10:05:05.565Z,965.12
2018-03-28T10:06:05.597Z,965.09
2018-03-28T10:07:05.304Z,965.15
2018-03-28T10:08:06.112Z,965.01
2018-03-28T10:09:05.792Z,965.01
2018-03-28T10:10:05.441Z,965.18
2018-03-28T10:11:05.307Z,964.98
2018-03-28T10:12:05.312Z,964.98
2018-03-28T10:13:05.776Z,965.01
2018-03-28T10:14:05.051Z,964.96
2018-03-28T10:15:05.180Z,964.99
2018-03-28T10:16:06.054Z,965.04
2018-03-28T10:17:05.838Z,965.07
2018-03-28T10:18:05.358Z,965.04
2018-03-28T10:19:05.506Z,965.01
2018-03-28T10:20:04.941Z,964.96
2018-03-28T10:21:05.186Z,965.01
2018-03-28T10:22:05.162Z,964.99
2018-03-28T10:23:05.208Z,965.10
2018-03-28T10:24:05.350Z,964.99
2018-03-28T10:25:06.314Z,965.02
2018-03-28T10:26:05.226Z,965.07
2018-03-28T10:27:05.514Z,964.93
2018-03-28T10:28:05.645Z,964.85
2018-03-28T10:29:05.758Z,964.99
2018-03-28T10:30:05.622Z,964.96
2018-03-28T10:31:05.971Z,964.96
2018-03-28T10:32:05.502Z,964.98
2018-03-28T10:33:05.676Z,965.07
2018-03-28T10:34:05.627Z,964.95
2018-03-28T10:35:05.830Z,964.89
2018-03-28T10:36:05.933Z,964.95
2018-03-28T10:37:05.646Z,964.86
2018-03-28T10:38:05.312Z,964.89
2018-03-28T10:39:05.830Z,964.78
2018-03-28T10:40:05.226Z,964.88
2018-03-28T10:41:05.348Z,964.94
2018-03-28T10:42:05.689Z,964.99
2018-03-28T10:43:05.050Z,964.85
2018-03-28T10:44:05.855Z,964.77
2018-03-28T10:45:05.288Z,964.84
2018-03-28T10:46:05.067Z,964.87
2018-03-28T10:47:05.623Z,964.70
2018-03-28T10:48:05.285Z,964.73
2018-03-28T10:49:05.658Z,964.83
2018-03-28T10:50:05.127Z,964.80
2018-03-28T10:51:05.947Z,964.69
2018-03-28T10:52:05.789Z,964.85
2018-03-28T10:53:05.845Z,965.04
2018-03-28T10:54:05.732Z,964.84
2018-03-28T10:55:05.417Z,964.76
2018-03-28T10:56:05.688Z,964.83
2018-03-28T10:57:05.268Z,964.86
2018-03-28T10:58:05.091Z,964.83
2018-03-28T10:59:05.593Z,964.86
2018-03-28T11:00:05.502Z,964.83
2018-03-28T11:01:05.713Z,964.67
2018-03-28T11:02:05.106Z,964.83
2018-03-28T11:03:05.176Z,964.69
2018-03-28T11:04:06.108Z,964.66
2018-03-28T11:05:05.976Z,964.66
2018-03-28T11:06:05.817Z,964.78
2018-03-28T11:07:05.181Z,964.75
2018-03-28T11:08:05.414Z,964.78
2018-03-28T11:09:05.165Z,964.75
2018-03-28T11:10:04.941Z,964.61
2018-03-28T11:11:05.568Z,964.69
2018-03-28T11:12:05.439Z,964.72
2018-03-28T11:13:05.248Z,964.69
2018-03-28T11:14:05.945Z,964.66
2018-03-28T11:15:05.853Z,964.60
2018-03-28T11:16:05.659Z,964.63
2018-03-28T11:17:05.451Z,964.69
2018-03-28T11:18:05.166Z,964.63
2018-03-28T11:19:05.165Z,964.63
2018-03-28T11:20:05.651Z,964.85
2018-03-28T11:21:05.988Z,964.49
2018-03-28T11:22:10.184Z,964.68
2018-03-28T11:23:05.085Z,964.87
2018-03-28T11:24:05.675Z,964.80
2018-03-28T11:25:05.053Z,964.77
2018-03-28T11:26:05.913Z,964.62
2018-03-28T11:27:05.234Z,964.68
2018-03-28T11:28:05.305Z,964.68
2018-03-28T11:29:05.738Z,964.56
2018-03-28T11:30:05.647Z,964.62
2018-03-28T11:31:05.705Z,964.42
2018-03-28T11:32:05.896Z,964.51
2018-03-28T11:33:05.242Z,964.71
2018-03-28T11:34:05.227Z,964.68
2018-03-28T11:35:05.310Z,964.56
2018-03-28T11:36:05.376Z,964.56
2018-03-28T11:37:05.271Z,964.48
2018-03-28T11:38:05.148Z,964.73
2018-03-28T11:39:05.334Z,964.67
2018-03-28T11:40:05.178Z,964.56
2018-03-28T11:41:05.464Z,964.56
2018-03-28T11:42:05.410Z,964.56
2018-03-28T11:43:05.284Z,964.61
2018-03-28T11:44:05.648Z,964.61
2018-03-28T11:45:05.412Z,964.53
2018-03-28T11:46:05.845Z,964.64
2018-03-28T11:47:05.854Z,964.56
2018-03-28T11:48:05.231Z,964.61
2018-03-28T11:49:05.069Z,964.61
2018-03-28T11:50:05.844Z,964.47
2018-03-28T11:51:06.666Z,964.53
2018-03-28T11:52:05.880Z,964.53
2018-03-28T11:53:05.744Z,964.50
2018-03-28T11:54:05.187Z,964.50
2018-03-28T11:55:05.728Z,964.39
2018-03-28T11:56:05.167Z,964.50
2018-03-28T11:57:05.738Z,964.56
2018-03-28T11:58:05.211Z,964.39
2018-03-28T11:59:04.990Z,964.39
2018-03-28T12:00:05.062Z,964.42
2018-03-28T12:01:05.314Z,964.53
2018-03-28T12:02:05.092Z,964.47
2018-03-28T12:03:05.704Z,964.39
2018-03-28T12:04:05.716Z,964.36
2018-03-28T12:05:05.750Z,964.41
2018-03-28T12:06:10.804Z,964.27
2018-03-28T12:07:05.625Z,964.41
2018-03-28T12:08:05.255Z,964.33
2018-03-28T12:09:05.067Z,964.47
2018-03-28T12:10:06.488Z,964.50
2018-03-28T12:11:05.351Z,964.44
2018-03-28T12:12:05.509Z,964.47
2018-03-28T12:13:05.372Z,964.38
2018-03-28T12:14:05.572Z,964.49
2018-03-28T12:15:05.227Z,964.38
2018-03-28T12:16:05.153Z,964.55
2018-03-28T12:17:05.388Z,964.47
2018-03-28T12:18:10.564Z,964.52
2018-03-28T12:19:05.396Z,964.38
2018-03-28T12:20:05.418Z,964.32
2018-03-28T12:21:05.071Z,964.49
2018-03-28T12:22:05.919Z,964.52
2018-03-28T12:23:10.816Z,964.35
2018-03-28T12:24:05.549Z,964.41
2018-03-28T12:25:05.206Z,964.47
2018-03-28T12:26:05.171Z,964.35
2018-03-28T12:27:05.738Z,964.41
2018-03-28T12:28:05.815Z,964.38